Terminal Aerodrome Forecast
Issued by NWS Central Illinois

Home | Current Version | Previous Version | Text Only | Print | Product List | Glossary On
Versions: 1 2 3 4 5 6 7 8 9 10 11 12 13 14 15 16 17
748
FTUS43 KILX 051334 AAA
TAFSPI
TAF AMD
KSPI 051334Z 0514/0612 VRB04KT 2SM BR OVC003
      TEMPO 0514/0516 1SM BR
     FM051900 15009KT 5SM BR BKN008
     FM052200 13008KT P6SM BKN250
     FM060700 12003KT 3SM BR OVC006=

USA.gov is the U.S. government's official web portal to all federal, state and local government web resources and services.